createdAt,value
2023-02-21T00:00:52.803Z,20.08
2023-02-21T00:03:38.116Z,20.06
2023-02-21T00:06:23.498Z,20.06
2023-02-21T00:09:08.961Z,20.03
2023-02-21T00:11:54.214Z,20.03
2023-02-21T00:14:39.507Z,20.02
2023-02-21T00:17:24.627Z,20.09
2023-02-21T00:20:09.978Z,20.10
2023-02-21T00:22:55.195Z,20.13
2023-02-21T00:25:40.535Z,20.14
2023-02-21T00:28:25.957Z,20.18
2023-02-21T00:31:11.357Z,20.21
2023-02-21T00:33:56.585Z,20.25
2023-02-21T00:36:41.956Z,20.24
2023-02-21T00:39:27.324Z,20.25
2023-02-21T00:42:12.789Z,20.26
2023-02-21T00:44:58.139Z,20.22
2023-02-21T00:47:43.497Z,20.21
2023-02-21T00:50:28.845Z,20.22
2023-02-21T00:53:14.158Z,20.24
2023-02-21T00:55:59.571Z,20.20
2023-02-21T00:58:44.912Z,20.23
2023-02-21T01:01:30.325Z,20.19
2023-02-21T01:04:17.227Z,20.20
2023-02-21T01:07:02.406Z,20.19
2023-02-21T01:09:47.741Z,20.22
2023-02-21T01:12:33.015Z,20.23
2023-02-21T01:15:18.548Z,20.25
2023-02-21T01:18:03.785Z,20.24
2023-02-21T01:20:49.155Z,20.25
2023-02-21T01:23:34.420Z,20.21
2023-02-21T01:26:19.928Z,20.21
2023-02-21T01:29:06.320Z,20.20
2023-02-21T01:31:51.699Z,20.19
2023-02-21T01:34:36.973Z,20.18
2023-02-21T01:37:22.367Z,20.18
2023-02-21T01:40:07.695Z,20.18
2023-02-21T01:42:53.145Z,20.19
2023-02-21T01:45:40.922Z,20.22
2023-02-21T01:48:35.897Z,20.22
2023-02-21T01:51:23.134Z,20.23
2023-02-21T01:54:08.570Z,20.23
2023-02-21T01:56:54.211Z,20.24
2023-02-21T01:59:42.673Z,20.30
2023-02-21T02:02:50.256Z,20.31
2023-02-21T02:05:37.120Z,20.33
2023-02-21T02:08:22.467Z,20.32
2023-02-21T02:11:19.498Z,20.32
2023-02-21T02:14:24.238Z,20.31
2023-02-21T02:17:15.714Z,20.27
2023-02-21T02:20:01.010Z,20.27
2023-02-21T02:22:43.308Z,20.23
2023-02-21T02:25:09.830Z,20.14
2023-02-21T02:28:05.494Z,20.19
2023-02-21T02:30:53.084Z,20.17
2023-02-21T02:33:39.872Z,20.15
2023-02-21T02:36:09.569Z,20.15
2023-02-21T02:39:08.052Z,20.19
2023-02-21T02:42:02.820Z,20.18
2023-02-21T02:44:37.837Z,20.17
2023-02-21T02:47:07.902Z,20.20
2023-02-21T02:49:38.811Z,20.20
2023-02-21T02:52:07.958Z,20.21
2023-02-21T02:54:34.972Z,20.18
2023-02-21T02:57:10.588Z,20.17
2023-02-21T02:59:39.917Z,20.17
2023-02-21T03:02:15.552Z,20.14
2023-02-21T03:04:54.758Z,20.13
2023-02-21T03:07:54.584Z,20.13
2023-02-21T03:10:42.534Z,20.11
2023-02-21T03:13:37.644Z,20.13
2023-02-21T03:16:26.204Z,20.11
2023-02-21T03:19:02.359Z,20.11
2023-02-21T03:21:32.923Z,20.17
2023-02-21T03:24:03.146Z,20.18
2023-02-21T03:26:34.027Z,20.18
2023-02-21T03:29:01.964Z,20.24
2023-02-21T03:31:36.485Z,20.27
2023-02-21T03:34:03.814Z,20.26
2023-02-21T03:36:31.380Z,20.27
2023-02-21T03:38:57.983Z,20.27
2023-02-21T03:41:24.940Z,20.26
2023-02-21T03:43:51.520Z,20.30
2023-02-21T03:46:18.144Z,20.28
2023-02-21T03:48:44.816Z,20.24
2023-02-21T03:51:12.672Z,20.25
2023-02-21T03:53:39.349Z,20.22
2023-02-21T03:56:06.308Z,20.20
2023-02-21T03:58:32.919Z,20.20
2023-02-21T04:00:59.633Z,20.20
2023-02-21T04:03:26.282Z,20.21
2023-02-21T04:05:52.980Z,20.22
2023-02-21T04:08:19.621Z,20.23
2023-02-21T04:10:52.092Z,20.21
2023-02-21T04:13:20.134Z,20.21
2023-02-21T04:15:46.983Z,20.22
2023-02-21T04:18:13.562Z,20.22
2023-02-21T04:20:40.152Z,20.24
2023-02-21T04:23:06.740Z,20.23
2023-02-21T04:25:33.350Z,20.25
2023-02-21T04:28:00.049Z,20.26
2023-02-21T04:30:27.072Z,20.25
2023-02-21T04:32:53.724Z,20.25
2023-02-21T04:35:20.424Z,20.26
2023-02-21T04:37:47.130Z,20.24
2023-02-21T04:40:14.021Z,20.24
2023-02-21T04:42:40.758Z,20.26
2023-02-21T04:45:07.784Z,20.25
2023-02-21T04:47:34.355Z,20.29
2023-02-21T04:50:01.026Z,20.30
2023-02-21T04:52:27.635Z,20.33
2023-02-21T04:54:54.460Z,20.32
2023-02-21T04:57:21.276Z,20.33
2023-02-21T04:59:48.017Z,20.33
2023-02-21T05:02:14.973Z,20.33
2023-02-21T05:04:43.158Z,20.35
2023-02-21T05:07:10.101Z,20.36
2023-02-21T05:09:36.687Z,20.34
2023-02-21T05:12:03.420Z,20.35
2023-02-21T05:14:30.003Z,20.34
2023-02-21T05:16:56.605Z,20.33
2023-02-21T05:19:29.433Z,20.32
2023-02-21T05:22:02.095Z,20.33
2023-02-21T05:24:30.562Z,20.33
2023-02-21T05:26:58.230Z,20.38
2023-02-21T05:29:25.642Z,20.41
2023-02-21T05:31:52.427Z,20.46
2023-02-21T05:34:19.751Z,20.49
2023-02-21T05:36:46.721Z,20.50
2023-02-21T05:39:13.450Z,20.52
2023-02-21T05:41:46.918Z,20.53
2023-02-21T05:44:13.581Z,20.52
2023-02-21T05:46:40.200Z,20.52
2023-02-21T05:49:07.180Z,20.53
2023-02-21T05:51:35.969Z,20.52
2023-02-21T05:54:02.811Z,20.58
2023-02-21T05:56:29.567Z,20.53
2023-02-21T05:58:56.145Z,20.48
2023-02-21T06:01:22.745Z,20.41
2023-02-21T06:03:49.356Z,20.31
2023-02-21T06:06:16.879Z,20.30
2023-02-21T06:08:48.418Z,20.30
2023-02-21T06:11:22.247Z,20.26
2023-02-21T06:13:51.033Z,20.22
2023-02-21T06:16:17.654Z,20.25
2023-02-21T06:18:44.315Z,20.23
2023-02-21T06:21:11.035Z,20.26
2023-02-21T06:23:37.663Z,20.32
2023-02-21T06:26:04.313Z,20.39
2023-02-21T06:28:31.040Z,20.40
2023-02-21T06:30:57.777Z,20.40
2023-02-21T06:33:24.783Z,20.40
2023-02-21T06:35:51.374Z,20.56
2023-02-21T06:38:17.937Z,20.60
2023-02-21T06:40:45.003Z,20.63
2023-02-21T06:43:11.636Z,20.63
2023-02-21T06:45:38.239Z,20.61
2023-02-21T06:48:04.929Z,20.59
2023-02-21T06:50:31.528Z,20.58
2023-02-21T06:52:58.093Z,20.57
2023-02-21T06:55:25.772Z,20.55
2023-02-21T06:57:52.658Z,20.53
2023-02-21T07:00:19.479Z,20.49
2023-02-21T07:02:46.133Z,20.60
2023-02-21T07:05:13.301Z,20.55
2023-02-21T07:07:39.925Z,20.52
2023-02-21T07:10:06.688Z,20.52
2023-02-21T07:12:33.313Z,20.47
2023-02-21T07:14:59.976Z,20.45
2023-02-21T07:17:26.703Z,20.40
2023-02-21T07:19:53.762Z,20.43
2023-02-21T07:22:25.977Z,20.36
2023-02-21T07:24:53.853Z,20.36
2023-02-21T07:27:21.159Z,20.36
2023-02-21T07:29:49.037Z,20.31
2023-02-21T07:32:17.315Z,20.37
2023-02-21T07:34:44.267Z,20.36
2023-02-21T07:37:11.536Z,20.42
2023-02-21T07:39:38.147Z,20.41
2023-02-21T07:42:05.392Z,20.39
2023-02-21T07:44:32.007Z,20.38
2023-02-21T07:46:58.620Z,20.42
2023-02-21T07:49:25.274Z,20.43
2023-02-21T07:51:52.209Z,20.42
2023-02-21T07:54:19.468Z,20.43
2023-02-21T07:56:49.871Z,20.46
2023-02-21T07:59:16.629Z,20.49
2023-02-21T08:01:43.473Z,20.49
2023-02-21T08:04:10.239Z,20.49
2023-02-21T08:06:37.165Z,20.51
2023-02-21T08:09:05.015Z,20.53
2023-02-21T08:11:32.719Z,20.54
2023-02-21T08:13:59.291Z,20.57
2023-02-21T08:16:26.011Z,20.62
2023-02-21T08:18:53.176Z,20.63
2023-02-21T08:21:20.214Z,20.60
2023-02-21T08:23:46.838Z,20.62
2023-02-21T08:26:13.421Z,20.63
2023-02-21T08:28:40.020Z,20.65
2023-02-21T08:31:07.357Z,20.70
2023-02-21T08:33:34.177Z,20.73
2023-02-21T08:36:01.223Z,20.68
2023-02-21T08:38:27.968Z,20.67
2023-02-21T08:40:57.182Z,20.65
2023-02-21T08:43:25.127Z,20.66
2023-02-21T08:45:51.738Z,20.62
2023-02-21T08:48:18.352Z,20.65
2023-02-21T08:50:45.032Z,20.60
2023-02-21T08:53:15.296Z,20.61
2023-02-21T08:55:43.315Z,20.60
2023-02-21T08:58:12.851Z,20.61
2023-02-21T09:00:39.571Z,20.61
2023-02-21T09:03:06.224Z,20.65
2023-02-21T09:05:33.262Z,20.68
2023-02-21T09:08:02.012Z,20.72
2023-02-21T09:10:31.757Z,20.71
2023-02-21T09:12:58.433Z,20.72
2023-02-21T09:15:25.265Z,20.71
2023-02-21T09:17:54.528Z,20.75
2023-02-21T09:20:24.953Z,20.75
2023-02-21T09:22:51.901Z,20.74
2023-02-21T09:25:23.737Z,20.72
2023-02-21T09:27:53.357Z,20.71
2023-02-21T09:30:24.383Z,20.77
2023-02-21T09:32:51.236Z,20.78
2023-02-21T09:35:18.690Z,20.82
2023-02-21T09:37:46.326Z,20.80
2023-02-21T09:40:24.799Z,20.81
2023-02-21T09:42:56.235Z,20.76
2023-02-21T09:45:25.050Z,20.70
2023-02-21T09:47:55.472Z,20.70
2023-02-21T09:50:27.848Z,20.73
2023-02-21T09:52:58.007Z,20.68
2023-02-21T09:55:32.234Z,20.69
2023-02-21T09:57:59.226Z,20.68
2023-02-21T10:00:46.628Z,20.72
2023-02-21T10:03:31.909Z,20.67
2023-02-21T10:06:06.158Z,20.72
2023-02-21T10:08:42.796Z,20.82
2023-02-21T10:11:31.330Z,20.96
2023-02-21T10:14:26.311Z,20.99
2023-02-21T10:17:11.112Z,21.07
2023-02-21T10:19:44.998Z,21.04
2023-02-21T10:22:19.493Z,21.10
2023-02-21T10:24:47.288Z,21.26
2023-02-21T10:27:26.835Z,21.21
2023-02-21T10:30:11.311Z,21.14
2023-02-21T10:32:38.685Z,21.11
2023-02-21T10:35:05.884Z,21.08
2023-02-21T10:37:36.059Z,20.98
2023-02-21T10:40:10.744Z,20.93
2023-02-21T10:42:45.234Z,21.10
2023-02-21T10:45:13.579Z,21.79
2023-02-21T10:47:46.416Z,21.39
2023-02-21T10:50:13.105Z,21.40
2023-02-21T10:52:51.161Z,21.37
2023-02-21T10:55:32.157Z,21.32
2023-02-21T10:58:07.588Z,21.33
2023-02-21T11:00:48.375Z,21.40
2023-02-21T11:03:17.992Z,21.36
2023-02-21T11:05:58.120Z,21.41
2023-02-21T11:08:42.695Z,21.35
2023-02-21T11:11:10.921Z,21.35
2023-02-21T11:13:37.873Z,21.40
2023-02-21T11:16:12.352Z,21.42
2023-02-21T11:18:39.148Z,21.52
2023-02-21T11:21:18.362Z,21.50
2023-02-21T11:24:06.305Z,21.29
2023-02-21T11:26:44.255Z,21.31
2023-02-21T11:29:15.503Z,21.35
2023-02-21T11:31:43.043Z,21.39
2023-02-21T11:34:13.740Z,21.38
2023-02-21T11:36:43.831Z,21.43
2023-02-21T11:39:27.716Z,21.43
2023-02-21T11:41:57.419Z,21.47
2023-02-21T11:44:38.001Z,21.35
2023-02-21T11:47:14.625Z,20.93
2023-02-21T11:49:54.570Z,20.89
2023-02-21T11:52:27.040Z,21.13
2023-02-21T11:54:53.737Z,21.11
2023-02-21T11:57:24.635Z,21.29
2023-02-21T12:00:23.277Z,21.33
2023-02-21T12:03:27.742Z,21.37
2023-02-21T12:06:04.842Z,21.43
2023-02-21T12:08:51.375Z,21.34
2023-02-21T12:11:36.841Z,21.36
2023-02-21T12:14:34.912Z,21.48
2023-02-21T12:17:33.020Z,21.78
2023-02-21T12:20:25.778Z,22.01
2023-02-21T12:23:11.799Z,21.78
2023-02-21T12:25:55.337Z,21.77
2023-02-21T12:28:39.172Z,21.58
2023-02-21T12:31:19.851Z,21.58
2023-02-21T12:34:05.290Z,21.48
2023-02-21T12:36:50.576Z,21.38
2023-02-21T12:39:41.800Z,21.32
2023-02-21T12:42:42.163Z,21.27
2023-02-21T12:45:43.691Z,21.23
2023-02-21T12:48:17.330Z,21.20
2023-02-21T12:50:50.827Z,21.17
2023-02-21T12:53:31.121Z,21.14
2023-02-21T12:56:10.701Z,21.10
2023-02-21T12:58:42.090Z,21.15
2023-02-21T13:01:20.876Z,21.32
2023-02-21T13:04:26.673Z,21.18
2023-02-21T13:07:19.194Z,21.22
2023-02-21T13:09:54.565Z,21.09
2023-02-21T13:12:31.404Z,21.04
2023-02-21T13:15:04.184Z,21.02
2023-02-21T13:17:30.894Z,21.04
2023-02-21T13:20:07.526Z,21.07
2023-02-21T13:23:30.584Z,21.04
2023-02-21T13:26:06.217Z,20.93
2023-02-21T13:28:38.729Z,20.90
2023-02-21T13:31:11.247Z,20.86
2023-02-21T13:33:46.746Z,20.77
2023-02-21T13:36:39.276Z,20.71
2023-02-21T13:39:08.853Z,20.71
2023-02-21T13:41:39.464Z,20.67
2023-02-21T13:44:10.794Z,20.67
2023-02-21T13:46:37.418Z,20.67
2023-02-21T13:49:42.771Z,20.67
2023-02-21T13:52:24.405Z,20.75
2023-02-21T13:55:09.300Z,20.74
2023-02-21T13:57:39.445Z,20.80
2023-02-21T14:00:24.263Z,20.84
2023-02-21T14:03:06.491Z,20.90
2023-02-21T14:06:08.386Z,20.90
2023-02-21T14:08:49.300Z,20.92
2023-02-21T14:11:22.553Z,20.92
2023-02-21T14:13:52.594Z,20.92
2023-02-21T14:16:37.314Z,20.90
2023-02-21T14:19:12.567Z,20.95
2023-02-21T14:21:48.089Z,20.89
2023-02-21T14:24:25.581Z,20.87
2023-02-21T14:26:52.152Z,20.84
2023-02-21T14:29:45.132Z,20.81
2023-02-21T14:32:11.849Z,20.79
2023-02-21T14:34:50.050Z,20.71
2023-02-21T14:37:38.353Z,20.68
2023-02-21T14:40:10.886Z,20.67
2023-02-21T14:42:43.536Z,20.67
2023-02-21T14:45:21.928Z,20.65
2023-02-21T14:48:14.091Z,20.64
2023-02-21T14:51:08.033Z,20.57
2023-02-21T14:54:09.558Z,20.59
2023-02-21T14:56:44.946Z,20.57
2023-02-21T14:59:17.791Z,20.60
2023-02-21T15:01:56.460Z,20.53
2023-02-21T15:04:35.105Z,20.49
2023-02-21T15:07:16.739Z,20.46
2023-02-21T15:09:43.359Z,20.48
2023-02-21T15:12:15.306Z,20.42
2023-02-21T15:14:49.918Z,20.43
2023-02-21T15:17:25.013Z,20.55
2023-02-21T15:20:15.601Z,20.54
2023-02-21T15:22:42.260Z,20.53
2023-02-21T15:25:08.787Z,20.55
2023-02-21T15:27:57.249Z,20.56
2023-02-21T15:30:34.482Z,20.59
2023-02-21T15:33:20.807Z,20.57
2023-02-21T15:36:09.089Z,20.58
2023-02-21T15:38:54.580Z,20.60
2023-02-21T15:41:38.455Z,20.63
2023-02-21T15:44:16.907Z,20.63
2023-02-21T15:47:02.278Z,20.65
2023-02-21T15:49:36.360Z,20.65
2023-02-21T15:52:04.286Z,20.63
2023-02-21T15:54:33.341Z,20.64
2023-02-21T15:57:10.477Z,20.62
2023-02-21T15:59:38.648Z,20.60
2023-02-21T16:02:11.243Z,20.61
2023-02-21T16:04:40.043Z,20.60
2023-02-21T16:07:15.250Z,20.62
2023-02-21T16:09:46.861Z,20.62
2023-02-21T16:12:14.218Z,20.61
2023-02-21T16:14:48.791Z,20.62
2023-02-21T16:17:23.750Z,20.61
2023-02-21T16:20:34.242Z,20.59
2023-02-21T16:23:19.827Z,20.57
2023-02-21T16:26:06.953Z,20.56
2023-02-21T16:28:33.939Z,20.55
2023-02-21T16:31:02.741Z,20.55
2023-02-21T16:33:30.123Z,20.52
2023-02-21T16:35:57.629Z,20.52
2023-02-21T16:38:26.061Z,20.51
2023-02-21T16:40:53.458Z,20.47
2023-02-21T16:43:23.617Z,20.47
2023-02-21T16:45:52.905Z,20.48
2023-02-21T16:48:32.881Z,20.50
2023-02-21T16:51:04.907Z,20.48
2023-02-21T16:53:31.841Z,20.50
2023-02-21T16:56:01.244Z,20.51
2023-02-21T16:58:36.591Z,20.53
2023-02-21T17:01:07.329Z,20.47
2023-02-21T17:03:33.921Z,20.49
2023-02-21T17:06:01.222Z,20.52
2023-02-21T17:08:28.450Z,20.51
2023-02-21T17:10:56.922Z,20.49
2023-02-21T17:13:24.135Z,20.47
2023-02-21T17:15:52.683Z,20.48
2023-02-21T17:18:20.631Z,20.50
2023-02-21T17:20:47.262Z,20.52
2023-02-21T17:23:13.934Z,20.50
2023-02-21T17:25:40.500Z,20.49
2023-02-21T17:28:07.545Z,20.48
2023-02-21T17:30:34.290Z,20.45
2023-02-21T17:33:00.938Z,20.49
2023-02-21T17:35:28.582Z,20.46
2023-02-21T17:37:55.243Z,20.45
2023-02-21T17:40:22.774Z,20.44
2023-02-21T17:42:49.536Z,20.43
2023-02-21T17:45:21.228Z,20.43
2023-02-21T17:47:49.121Z,20.38
2023-02-21T17:50:16.174Z,20.39
2023-02-21T17:52:43.132Z,20.42
2023-02-21T17:55:20.730Z,20.42
2023-02-21T17:57:47.380Z,20.40
2023-02-21T18:00:21.408Z,20.39
2023-02-21T18:02:49.129Z,20.36
2023-02-21T18:05:15.802Z,20.45
2023-02-21T18:07:45.697Z,20.42
2023-02-21T18:10:12.292Z,20.41
2023-02-21T18:12:38.887Z,20.43
2023-02-21T18:15:07.043Z,20.45
2023-02-21T18:17:33.642Z,20.40
2023-02-21T18:20:01.304Z,20.40
2023-02-21T18:22:27.902Z,20.42
2023-02-21T18:24:54.551Z,20.40
2023-02-21T18:27:21.206Z,20.38
2023-02-21T18:29:47.813Z,20.40
2023-02-21T18:32:14.452Z,20.42
2023-02-21T18:34:42.906Z,20.40
2023-02-21T18:37:09.566Z,20.47
2023-02-21T18:39:36.151Z,20.53
2023-02-21T18:42:02.920Z,20.57
2023-02-21T18:44:31.337Z,20.59
2023-02-21T18:46:59.268Z,20.63
2023-02-21T18:49:26.372Z,20.62
2023-02-21T18:51:53.332Z,20.66
2023-02-21T18:54:20.833Z,20.69
2023-02-21T18:56:49.783Z,20.71
2023-02-21T18:59:22.417Z,20.73
2023-02-21T19:01:54.472Z,20.71
2023-02-21T19:04:21.797Z,20.75
2023-02-21T19:06:48.475Z,20.78
2023-02-21T19:09:15.068Z,20.79
2023-02-21T19:11:41.853Z,20.83
2023-02-21T19:14:08.875Z,20.82
2023-02-21T19:16:35.523Z,20.83
2023-02-21T19:19:04.931Z,20.84
2023-02-21T19:21:31.968Z,20.83
2023-02-21T19:23:58.579Z,20.80
2023-02-21T19:26:29.726Z,20.80
2023-02-21T19:28:56.604Z,20.82
2023-02-21T19:31:23.752Z,20.81
2023-02-21T19:33:50.420Z,20.82
2023-02-21T19:36:17.226Z,20.72
2023-02-21T19:38:43.845Z,20.67
2023-02-21T19:41:10.451Z,20.61
2023-02-21T19:43:37.552Z,20.58
2023-02-21T19:46:04.550Z,20.58
2023-02-21T19:48:31.233Z,20.60
2023-02-21T19:50:57.846Z,20.60
2023-02-21T19:53:24.467Z,20.62
2023-02-21T19:55:51.086Z,20.61
2023-02-21T19:58:19.904Z,20.59
2023-02-21T20:00:47.154Z,20.60
2023-02-21T20:03:14.079Z,20.57
2023-02-21T20:05:40.696Z,20.58
2023-02-21T20:08:09.159Z,20.55
2023-02-21T20:10:35.781Z,20.60
2023-02-21T20:13:06.188Z,20.59
2023-02-21T20:15:34.355Z,20.59
2023-02-21T20:18:02.008Z,20.53
2023-02-21T20:20:29.053Z,20.53
2023-02-21T20:22:55.806Z,20.55
2023-02-21T20:25:23.143Z,20.53
2023-02-21T20:27:49.775Z,20.51
2023-02-21T20:30:17.548Z,20.50
2023-02-21T20:32:44.675Z,20.49
2023-02-21T20:35:12.682Z,20.51
2023-02-21T20:37:40.047Z,20.50
2023-02-21T20:40:10.275Z,20.53
2023-02-21T20:42:37.416Z,20.48
2023-02-21T20:45:04.245Z,20.52
2023-02-21T20:47:31.010Z,20.47
2023-02-21T20:49:57.666Z,20.49
2023-02-21T20:52:24.228Z,20.44
2023-02-21T20:54:51.776Z,20.46
2023-02-21T20:57:18.442Z,20.46
2023-02-21T20:59:46.225Z,20.48
2023-02-21T21:02:13.035Z,20.48
2023-02-21T21:04:43.172Z,20.46
2023-02-21T21:07:14.222Z,20.49
2023-02-21T21:09:41.138Z,20.49
2023-02-21T21:12:17.262Z,20.47
2023-02-21T21:14:46.553Z,20.45
2023-02-21T21:17:16.148Z,20.44
2023-02-21T21:19:44.355Z,20.44
2023-02-21T21:22:13.942Z,20.42
2023-02-21T21:24:40.682Z,20.44
2023-02-21T21:27:10.103Z,20.44
2023-02-21T21:29:38.986Z,20.43
2023-02-21T21:32:06.147Z,20.42
2023-02-21T21:34:33.305Z,20.42
2023-02-21T21:37:02.576Z,20.41
2023-02-21T21:39:29.326Z,20.38
2023-02-21T21:42:05.646Z,20.37
2023-02-21T21:44:32.886Z,20.38
2023-02-21T21:47:01.091Z,20.39
2023-02-21T21:49:33.482Z,20.42
2023-02-21T21:52:00.945Z,20.38
2023-02-21T21:54:27.965Z,20.41
2023-02-21T21:56:55.220Z,20.42
2023-02-21T21:59:26.971Z,20.45
2023-02-21T22:01:54.230Z,20.45
2023-02-21T22:04:22.105Z,20.44
2023-02-21T22:06:50.152Z,20.45
2023-02-21T22:09:16.737Z,20.44
2023-02-21T22:11:45.636Z,20.43
2023-02-21T22:14:13.752Z,20.43
2023-02-21T22:16:42.612Z,20.42
2023-02-21T22:19:10.072Z,20.43
2023-02-21T22:21:37.536Z,20.40
2023-02-21T22:24:04.936Z,20.49
2023-02-21T22:26:31.958Z,20.43
2023-02-21T22:28:58.560Z,20.45
2023-02-21T22:31:27.206Z,20.46
2023-02-21T22:33:59.148Z,20.49
2023-02-21T22:36:26.492Z,20.55
2023-02-21T22:38:55.797Z,20.62
2023-02-21T22:41:28.377Z,20.70
2023-02-21T22:43:55.652Z,20.72
2023-02-21T22:46:23.972Z,20.74
2023-02-21T22:48:50.588Z,20.76
2023-02-21T22:51:18.969Z,20.77
2023-02-21T22:53:51.326Z,20.77
2023-02-21T22:56:23.608Z,20.78
2023-02-21T22:58:51.469Z,20.76
2023-02-21T23:01:21.010Z,20.75
2023-02-21T23:03:48.019Z,20.78
2023-02-21T23:06:14.902Z,20.80
2023-02-21T23:08:46.812Z,20.81
2023-02-21T23:11:18.961Z,20.80
2023-02-21T23:13:47.070Z,20.85
2023-02-21T23:16:22.019Z,20.88
2023-02-21T23:18:48.663Z,20.83
2023-02-21T23:21:22.935Z,20.81
2023-02-21T23:23:50.554Z,20.85
2023-02-21T23:26:21.197Z,20.86
2023-02-21T23:28:51.696Z,20.85
2023-02-21T23:31:21.029Z,20.87
2023-02-21T23:33:48.807Z,20.87
2023-02-21T23:36:22.670Z,20.82
2023-02-21T23:38:50.784Z,20.79
2023-02-21T23:41:18.512Z,20.79
2023-02-21T23:43:46.530Z,20.79
2023-02-21T23:46:19.720Z,20.79
2023-02-21T23:48:46.372Z,20.76
2023-02-21T23:51:14.057Z,20.75
2023-02-21T23:53:44.965Z,20.74
2023-02-21T23:56:13.218Z,20.81
2023-02-21T23:58:44.346Z,20.72
